sensor_id;sensor_type;location;lat;lon;timestamp;P1;durP1;ratioP1;P2;durP2;ratioP2
4726;SDS011;2377;51.734;8.950;2022-10-03T00:01:55;14.50;;;3.50;;
4726;SDS011;2377;51.734;8.950;2022-10-03T00:05:00;10.43;;;3.70;;
4726;SDS011;2377;51.734;8.950;2022-10-03T00:07:47;12.57;;;2.97;;
4726;SDS011;2377;51.734;8.950;2022-10-03T00:10:34;14.17;;;3.40;;
4726;SDS011;2377;51.734;8.950;2022-10-03T00:13:18;8.70;;;2.23;;
4726;SDS011;2377;51.734;8.950;2022-10-03T00:15:59;9.67;;;3.00;;
4726;SDS011;2377;51.734;8.950;2022-10-03T00:18:40;12.80;;;3.27;;
4726;SDS011;2377;51.734;8.950;2022-10-03T00:21:37;19.50;;;3.20;;
4726;SDS011;2377;51.734;8.950;2022-10-03T00:24:21;14.67;;;3.80;;
4726;SDS011;2377;51.734;8.950;2022-10-03T00:27:01;14.43;;;3.30;;
4726;SDS011;2377;51.734;8.950;2022-10-03T00:29:40;10.73;;;2.90;;
4726;SDS011;2377;51.734;8.950;2022-10-03T00:32:41;12.07;;;2.97;;
4726;SDS011;2377;51.734;8.950;2022-10-03T00:35:37;17.13;;;3.67;;
4726;SDS011;2377;51.734;8.950;2022-10-03T00:38:31;10.87;;;4.20;;
4726;SDS011;2377;51.734;8.950;2022-10-03T00:41:43;13.93;;;5.23;;
4726;SDS011;2377;51.734;8.950;2022-10-03T00:45:00;18.93;;;4.00;;
4726;SDS011;2377;51.734;8.950;2022-10-03T00:48:15;9.20;;;3.50;;
4726;SDS011;2377;51.734;8.950;2022-10-03T00:51:29;14.67;;;4.13;;
4726;SDS011;2377;51.734;8.950;2022-10-03T00:54:20;9.27;;;4.07;;
4726;SDS011;2377;51.734;8.950;2022-10-03T00:57:17;12.30;;;3.60;;
4726;SDS011;2377;51.734;8.950;2022-10-03T01:00:13;11.93;;;4.03;;
4726;SDS011;2377;51.734;8.950;2022-10-03T01:02:46;9.40;;;4.00;;
4726;SDS011;2377;51.734;8.950;2022-10-03T01:05:37;12.83;;;3.73;;
4726;SDS011;2377;51.734;8.950;2022-10-03T01:08:25;15.93;;;4.97;;
4726;SDS011;2377;51.734;8.950;2022-10-03T01:11:13;13.97;;;3.77;;
4726;SDS011;2377;51.734;8.950;2022-10-03T01:14:00;15.27;;;4.80;;
4726;SDS011;2377;51.734;8.950;2022-10-03T01:16:43;11.90;;;4.80;;
4726;SDS011;2377;51.734;8.950;2022-10-03T01:19:45;20.00;;;5.93;;
4726;SDS011;2377;51.734;8.950;2022-10-03T01:22:50;18.93;;;5.47;;
4726;SDS011;2377;51.734;8.950;2022-10-03T01:25:57;18.23;;;5.30;;
4726;SDS011;2377;51.734;8.950;2022-10-03T01:28:42;16.90;;;4.90;;
4726;SDS011;2377;51.734;8.950;2022-10-03T01:31:39;17.67;;;5.27;;
4726;SDS011;2377;51.734;8.950;2022-10-03T01:34:16;18.53;;;5.00;;
4726;SDS011;2377;51.734;8.950;2022-10-03T01:36:57;18.60;;;5.87;;
4726;SDS011;2377;51.734;8.950;2022-10-03T01:39:37;14.87;;;6.13;;
4726;SDS011;2377;51.734;8.950;2022-10-03T01:42:16;27.83;;;6.20;;
4726;SDS011;2377;51.734;8.950;2022-10-03T01:45:09;24.20;;;6.73;;
4726;SDS011;2377;51.734;8.950;2022-10-03T01:47:52;16.20;;;6.00;;
4726;SDS011;2377;51.734;8.950;2022-10-03T01:50:29;22.93;;;7.37;;
4726;SDS011;2377;51.734;8.950;2022-10-03T01:53:03;28.67;;;7.40;;
4726;SDS011;2377;51.734;8.950;2022-10-03T01:55:43;18.80;;;5.90;;
4726;SDS011;2377;51.734;8.950;2022-10-03T01:58:29;19.90;;;7.27;;
4726;SDS011;2377;51.734;8.950;2022-10-03T02:01:13;17.67;;;8.10;;
4726;SDS011;2377;51.734;8.950;2022-10-03T02:03:53;28.50;;;6.67;;
4726;SDS011;2377;51.734;8.950;2022-10-03T02:06:35;17.73;;;6.43;;
4726;SDS011;2377;51.734;8.950;2022-10-03T02:09:17;17.83;;;8.13;;
4726;SDS011;2377;51.734;8.950;2022-10-03T02:12:02;17.83;;;8.33;;
4726;SDS011;2377;51.734;8.950;2022-10-03T02:14:39;29.37;;;9.93;;
4726;SDS011;2377;51.734;8.950;2022-10-03T02:17:21;28.93;;;9.20;;
4726;SDS011;2377;51.734;8.950;2022-10-03T02:20:08;16.10;;;7.50;;
4726;SDS011;2377;51.734;8.950;2022-10-03T02:22:49;24.57;;;9.00;;
4726;SDS011;2377;51.734;8.950;2022-10-03T02:25:22;22.47;;;7.90;;
4726;SDS011;2377;51.734;8.950;2022-10-03T02:28:13;28.77;;;9.40;;
4726;SDS011;2377;51.734;8.950;2022-10-03T02:37:55;27.50;;;9.63;;
4726;SDS011;2377;51.734;8.950;2022-10-03T02:57:24;18.37;;;8.53;;
4726;SDS011;2377;51.734;8.950;2022-10-03T03:00:52;28.17;;;9.10;;
4726;SDS011;2377;51.734;8.950;2022-10-03T03:04:14;25.97;;;8.90;;
4726;SDS011;2377;51.734;8.950;2022-10-03T03:07:28;33.00;;;10.60;;
4726;SDS011;2377;51.734;8.950;2022-10-03T03:13:38;24.03;;;8.73;;
4726;SDS011;2377;51.734;8.950;2022-10-03T03:16:53;19.30;;;9.13;;
4726;SDS011;2377;51.734;8.950;2022-10-03T03:19:37;25.77;;;8.63;;
4726;SDS011;2377;51.734;8.950;2022-10-03T03:22:28;18.70;;;7.90;;
4726;SDS011;2377;51.734;8.950;2022-10-03T03:25:29;27.47;;;7.50;;
4726;SDS011;2377;51.734;8.950;2022-10-03T03:28:34;34.00;;;8.93;;
4726;SDS011;2377;51.734;8.950;2022-10-03T03:31:19;12.80;;;7.93;;
4726;SDS011;2377;51.734;8.950;2022-10-03T03:33:58;77.33;;;10.80;;
4726;SDS011;2377;51.734;8.950;2022-10-03T03:36:40;63.93;;;10.17;;
4726;SDS011;2377;51.734;8.950;2022-10-03T03:39:29;71.37;;;10.33;;
4726;SDS011;2377;51.734;8.950;2022-10-03T03:42:22;55.37;;;9.80;;
4726;SDS011;2377;51.734;8.950;2022-10-03T03:45:19;44.87;;;9.23;;
4726;SDS011;2377;51.734;8.950;2022-10-03T03:48:13;51.83;;;9.40;;
4726;SDS011;2377;51.734;8.950;2022-10-03T03:51:14;124.83;;;14.03;;
4726;SDS011;2377;51.734;8.950;2022-10-03T03:54:05;41.23;;;8.90;;
4726;SDS011;2377;51.734;8.950;2022-10-03T04:00:18;19.93;;;7.47;;
4726;SDS011;2377;51.734;8.950;2022-10-03T04:06:03;119.10;;;10.13;;
4726;SDS011;2377;51.734;8.950;2022-10-03T04:09:01;58.60;;;9.10;;
4726;SDS011;2377;51.734;8.950;2022-10-03T04:12:08;39.03;;;8.60;;
4726;SDS011;2377;51.734;8.950;2022-10-03T04:15:02;123.10;;;12.70;;
4726;SDS011;2377;51.734;8.950;2022-10-03T04:18:19;35.17;;;9.37;;
4726;SDS011;2377;51.734;8.950;2022-10-03T04:21:28;15.93;;;8.03;;
4726;SDS011;2377;51.734;8.950;2022-10-03T04:24:18;82.73;;;10.20;;
4726;SDS011;2377;51.734;8.950;2022-10-03T04:27:25;44.43;;;9.60;;
4726;SDS011;2377;51.734;8.950;2022-10-03T04:30:34;89.60;;;9.07;;
4726;SDS011;2377;51.734;8.950;2022-10-03T04:33:22;84.07;;;9.37;;
4726;SDS011;2377;51.734;8.950;2022-10-03T04:36:14;123.80;;;10.40;;
4726;SDS011;2377;51.734;8.950;2022-10-03T04:39:33;44.17;;;8.33;;
4726;SDS011;2377;51.734;8.950;2022-10-03T04:42:13;9.70;;;7.40;;
4726;SDS011;2377;51.734;8.950;2022-10-03T04:45:02;95.70;;;11.03;;
4726;SDS011;2377;51.734;8.950;2022-10-03T04:47:48;25.37;;;8.20;;
4726;SDS011;2377;51.734;8.950;2022-10-03T04:50:24;119.87;;;11.27;;
4726;SDS011;2377;51.734;8.950;2022-10-03T04:53:09;41.43;;;8.70;;
4726;SDS011;2377;51.734;8.950;2022-10-03T04:55:56;70.67;;;9.30;;
4726;SDS011;2377;51.734;8.950;2022-10-03T04:58:42;44.10;;;9.50;;
4726;SDS011;2377;51.734;8.950;2022-10-03T05:01:22;72.87;;;9.53;;
4726;SDS011;2377;51.734;8.950;2022-10-03T05:04:05;14.63;;;7.40;;
4726;SDS011;2377;51.734;8.950;2022-10-03T05:06:58;30.70;;;8.87;;
4726;SDS011;2377;51.734;8.950;2022-10-03T05:09:40;67.70;;;8.83;;
4726;SDS011;2377;51.734;8.950;2022-10-03T05:12:19;10.90;;;7.93;;
4726;SDS011;2377;51.734;8.950;2022-10-03T05:15:12;21.87;;;8.80;;
4726;SDS011;2377;51.734;8.950;2022-10-03T05:17:51;82.23;;;10.03;;
4726;SDS011;2377;51.734;8.950;2022-10-03T05:20:36;51.97;;;9.70;;
4726;SDS011;2377;51.734;8.950;2022-10-03T05:23:18;87.53;;;9.83;;
4726;SDS011;2377;51.734;8.950;2022-10-03T05:26:00;58.90;;;9.17;;
4726;SDS011;2377;51.734;8.950;2022-10-03T05:28:42;14.37;;;8.20;;
4726;SDS011;2377;51.734;8.950;2022-10-03T05:31:22;53.67;;;8.87;;
4726;SDS011;2377;51.734;8.950;2022-10-03T05:34:03;49.10;;;9.03;;
4726;SDS011;2377;51.734;8.950;2022-10-03T05:36:56;110.03;;;10.20;;
4726;SDS011;2377;51.734;8.950;2022-10-03T05:39:59;155.17;;;12.07;;
4726;SDS011;2377;51.734;8.950;2022-10-03T05:42:34;167.60;;;12.60;;
4726;SDS011;2377;51.734;8.950;2022-10-03T05:45:25;9.40;;;7.10;;
4726;SDS011;2377;51.734;8.950;2022-10-03T05:48:11;98.73;;;9.63;;
4726;SDS011;2377;51.734;8.950;2022-10-03T05:54:39;15.33;;;7.23;;
4726;SDS011;2377;51.734;8.950;2022-10-03T06:03:59;118.67;;;10.40;;
4726;SDS011;2377;51.734;8.950;2022-10-03T06:06:50;23.00;;;8.77;;
4726;SDS011;2377;51.734;8.950;2022-10-03T06:13:09;20.10;;;9.00;;
4726;SDS011;2377;51.734;8.950;2022-10-03T06:15:46;24.73;;;9.30;;
4726;SDS011;2377;51.734;8.950;2022-10-03T06:21:40;12.90;;;8.70;;
4726;SDS011;2377;51.734;8.950;2022-10-03T06:25:08;22.83;;;8.77;;
4726;SDS011;2377;51.734;8.950;2022-10-03T06:28:45;76.17;;;11.03;;
4726;SDS011;2377;51.734;8.950;2022-10-03T06:48:38;160.70;;;13.50;;
4726;SDS011;2377;51.734;8.950;2022-10-03T06:52:02;73.40;;;10.70;;
4726;SDS011;2377;51.734;8.950;2022-10-03T06:55:12;108.17;;;12.00;;
4726;SDS011;2377;51.734;8.950;2022-10-03T07:04:33;50.10;;;11.90;;
4726;SDS011;2377;51.734;8.950;2022-10-03T07:11:23;51.13;;;11.60;;
4726;SDS011;2377;51.734;8.950;2022-10-03T07:17:36;218.07;;;15.60;;
4726;SDS011;2377;51.734;8.950;2022-10-03T07:24:12;57.50;;;11.00;;
4726;SDS011;2377;51.734;8.950;2022-10-03T07:27:27;125.70;;;11.60;;
4726;SDS011;2377;51.734;8.950;2022-10-03T07:30:29;25.47;;;9.53;;
4726;SDS011;2377;51.734;8.950;2022-10-03T07:39:56;17.53;;;9.27;;
4726;SDS011;2377;51.734;8.950;2022-10-03T07:49:44;19.03;;;9.53;;
4726;SDS011;2377;51.734;8.950;2022-10-03T07:52:56;17.63;;;9.47;;
4726;SDS011;2377;51.734;8.950;2022-10-03T07:55:45;38.93;;;10.53;;
4726;SDS011;2377;51.734;8.950;2022-10-03T07:58:50;48.27;;;11.47;;
4726;SDS011;2377;51.734;8.950;2022-10-03T08:01:47;30.27;;;12.73;;
4726;SDS011;2377;51.734;8.950;2022-10-03T08:07:48;33.80;;;10.57;;
4726;SDS011;2377;51.734;8.950;2022-10-03T08:17:10;17.43;;;9.27;;
4726;SDS011;2377;51.734;8.950;2022-10-03T08:20:25;14.67;;;9.73;;
4726;SDS011;2377;51.734;8.950;2022-10-03T08:23:19;74.90;;;14.17;;
4726;SDS011;2377;51.734;8.950;2022-10-03T08:26:34;22.73;;;10.43;;
4726;SDS011;2377;51.734;8.950;2022-10-03T08:29:25;16.20;;;11.10;;
4726;SDS011;2377;51.734;8.950;2022-10-03T08:32:33;13.63;;;9.87;;
4726;SDS011;2377;51.734;8.950;2022-10-03T08:39:00;46.90;;;12.53;;
4726;SDS011;2377;51.734;8.950;2022-10-03T08:45:22;32.23;;;11.17;;
4726;SDS011;2377;51.734;8.950;2022-10-03T08:48:46;43.63;;;11.70;;
4726;SDS011;2377;51.734;8.950;2022-10-03T08:51:52;32.80;;;13.40;;
4726;SDS011;2377;51.734;8.950;2022-10-03T08:54:47;26.47;;;10.50;;
4726;SDS011;2377;51.734;8.950;2022-10-03T09:01:00;47.97;;;12.03;;
4726;SDS011;2377;51.734;8.950;2022-10-03T09:07:30;28.13;;;13.10;;
4726;SDS011;2377;51.734;8.950;2022-10-03T09:10:32;19.87;;;12.50;;
4726;SDS011;2377;51.734;8.950;2022-10-03T09:13:20;27.33;;;15.20;;
4726;SDS011;2377;51.734;8.950;2022-10-03T09:16:46;27.50;;;13.90;;
4726;SDS011;2377;51.734;8.950;2022-10-03T09:23:01;23.20;;;12.90;;
4726;SDS011;2377;51.734;8.950;2022-10-03T09:26:14;18.77;;;10.83;;
4726;SDS011;2377;51.734;8.950;2022-10-03T09:29:39;35.33;;;13.30;;
4726;SDS011;2377;51.734;8.950;2022-10-03T09:39:32;20.63;;;10.73;;
4726;SDS011;2377;51.734;8.950;2022-10-03T09:45:58;20.13;;;12.13;;
4726;SDS011;2377;51.734;8.950;2022-10-03T09:49:03;24.80;;;13.13;;
4726;SDS011;2377;51.734;8.950;2022-10-03T09:52:08;27.33;;;13.73;;
4726;SDS011;2377;51.734;8.950;2022-10-03T09:55:12;27.43;;;14.03;;
4726;SDS011;2377;51.734;8.950;2022-10-03T09:58:11;30.10;;;13.87;;
4726;SDS011;2377;51.734;8.950;2022-10-03T10:01:12;23.23;;;13.30;;
4726;SDS011;2377;51.734;8.950;2022-10-03T10:24:18;26.73;;;11.90;;
4726;SDS011;2377;51.734;8.950;2022-10-03T10:34:04;19.97;;;10.07;;
4726;SDS011;2377;51.734;8.950;2022-10-03T10:40:36;25.97;;;11.63;;
4726;SDS011;2377;51.734;8.950;2022-10-03T10:47:14;25.10;;;11.77;;
4726;SDS011;2377;51.734;8.950;2022-10-03T10:57:00;23.50;;;11.63;;
4726;SDS011;2377;51.734;8.950;2022-10-03T10:59:54;23.10;;;10.63;;
4726;SDS011;2377;51.734;8.950;2022-10-03T11:13:39;24.97;;;10.33;;
4726;SDS011;2377;51.734;8.950;2022-10-03T11:24:05;19.97;;;8.83;;
4726;SDS011;2377;51.734;8.950;2022-10-03T11:30:53;21.93;;;9.27;;
4726;SDS011;2377;51.734;8.950;2022-10-03T11:34:21;21.93;;;9.00;;
4726;SDS011;2377;51.734;8.950;2022-10-03T11:37:27;19.90;;;8.10;;
4726;SDS011;2377;51.734;8.950;2022-10-03T11:40:17;18.63;;;7.87;;
4726;SDS011;2377;51.734;8.950;2022-10-03T11:43:19;21.20;;;9.77;;
4726;SDS011;2377;51.734;8.950;2022-10-03T11:46:19;20.77;;;8.60;;
4726;SDS011;2377;51.734;8.950;2022-10-03T11:49:04;17.60;;;7.80;;
4726;SDS011;2377;51.734;8.950;2022-10-03T11:51:50;15.70;;;7.60;;
4726;SDS011;2377;51.734;8.950;2022-10-03T11:54:35;13.93;;;6.47;;
4726;SDS011;2377;51.734;8.950;2022-10-03T11:57:08;16.77;;;6.87;;
4726;SDS011;2377;51.734;8.950;2022-10-03T11:59:52;13.87;;;6.20;;
4726;SDS011;2377;51.734;8.950;2022-10-03T12:02:37;18.10;;;6.50;;
4726;SDS011;2377;51.734;8.950;2022-10-03T12:05:32;13.70;;;5.80;;
4726;SDS011;2377;51.734;8.950;2022-10-03T12:08:21;17.93;;;6.43;;
4726;SDS011;2377;51.734;8.950;2022-10-03T12:11:15;14.67;;;5.00;;
4726;SDS011;2377;51.734;8.950;2022-10-03T12:13:57;14.47;;;6.07;;
4726;SDS011;2377;51.734;8.950;2022-10-03T12:16:59;14.83;;;6.77;;
4726;SDS011;2377;51.734;8.950;2022-10-03T12:19:35;13.10;;;5.80;;
4726;SDS011;2377;51.734;8.950;2022-10-03T12:22:18;13.70;;;5.87;;
4726;SDS011;2377;51.734;8.950;2022-10-03T12:25:13;10.00;;;4.97;;
4726;SDS011;2377;51.734;8.950;2022-10-03T12:27:49;11.07;;;5.50;;
4726;SDS011;2377;51.734;8.950;2022-10-03T12:30:31;18.00;;;6.00;;
4726;SDS011;2377;51.734;8.950;2022-10-03T12:33:16;15.03;;;4.57;;
4726;SDS011;2377;51.734;8.950;2022-10-03T12:36:12;8.93;;;3.50;;
4726;SDS011;2377;51.734;8.950;2022-10-03T12:38:48;11.27;;;3.50;;
4726;SDS011;2377;51.734;8.950;2022-10-03T12:44:37;7.57;;;2.93;;
4726;SDS011;2377;51.734;8.950;2022-10-03T12:47:25;7.30;;;3.03;;
4726;SDS011;2377;51.734;8.950;2022-10-03T12:50:11;18.33;;;3.00;;
4726;SDS011;2377;51.734;8.950;2022-10-03T12:52:57;10.20;;;2.47;;
4726;SDS011;2377;51.734;8.950;2022-10-03T12:55:52;7.73;;;2.40;;
4726;SDS011;2377;51.734;8.950;2022-10-03T12:58:54;8.40;;;2.27;;
4726;SDS011;2377;51.734;8.950;2022-10-03T13:01:51;11.47;;;2.57;;
4726;SDS011;2377;51.734;8.950;2022-10-03T13:04:53;8.63;;;2.50;;
4726;SDS011;2377;51.734;8.950;2022-10-03T13:07:57;9.83;;;2.70;;
4726;SDS011;2377;51.734;8.950;2022-10-03T13:10:40;6.37;;;2.13;;
4726;SDS011;2377;51.734;8.950;2022-10-03T13:13:20;9.60;;;2.37;;
4726;SDS011;2377;51.734;8.950;2022-10-03T13:16:02;8.47;;;2.60;;
4726;SDS011;2377;51.734;8.950;2022-10-03T13:18:52;10.83;;;3.00;;
4726;SDS011;2377;51.734;8.950;2022-10-03T13:21:35;7.60;;;2.10;;
4726;SDS011;2377;51.734;8.950;2022-10-03T13:24:29;6.63;;;1.90;;
4726;SDS011;2377;51.734;8.950;2022-10-03T13:27:09;12.30;;;2.57;;
4726;SDS011;2377;51.734;8.950;2022-10-03T13:30:04;6.43;;;2.37;;
4726;SDS011;2377;51.734;8.950;2022-10-03T13:32:43;8.60;;;2.50;;
4726;SDS011;2377;51.734;8.950;2022-10-03T13:35:18;7.07;;;2.17;;
4726;SDS011;2377;51.734;8.950;2022-10-03T13:41:27;11.27;;;2.47;;
4726;SDS011;2377;51.734;8.950;2022-10-03T13:44:11;4.53;;;1.80;;
4726;SDS011;2377;51.734;8.950;2022-10-03T13:46:43;13.23;;;1.90;;
4726;SDS011;2377;51.734;8.950;2022-10-03T13:49:21;8.13;;;2.00;;
4726;SDS011;2377;51.734;8.950;2022-10-03T13:51:56;6.13;;;1.70;;
4726;SDS011;2377;51.734;8.950;2022-10-03T13:57:43;7.70;;;2.40;;
4726;SDS011;2377;51.734;8.950;2022-10-03T14:00:25;4.60;;;1.77;;
4726;SDS011;2377;51.734;8.950;2022-10-03T14:03:03;5.93;;;2.33;;
4726;SDS011;2377;51.734;8.950;2022-10-03T14:05:53;4.43;;;1.70;;
4726;SDS011;2377;51.734;8.950;2022-10-03T14:08:51;7.17;;;2.13;;
4726;SDS011;2377;51.734;8.950;2022-10-03T14:11:41;6.20;;;1.60;;
4726;SDS011;2377;51.734;8.950;2022-10-03T14:14:26;5.73;;;1.90;;
4726;SDS011;2377;51.734;8.950;2022-10-03T14:17:16;6.50;;;1.50;;
4726;SDS011;2377;51.734;8.950;2022-10-03T14:20:01;4.77;;;1.97;;
4726;SDS011;2377;51.734;8.950;2022-10-03T14:22:49;5.13;;;1.63;;
4726;SDS011;2377;51.734;8.950;2022-10-03T14:25:32;12.13;;;2.40;;
4726;SDS011;2377;51.734;8.950;2022-10-03T14:28:12;8.40;;;1.63;;
4726;SDS011;2377;51.734;8.950;2022-10-03T14:30:54;13.10;;;2.17;;
4726;SDS011;2377;51.734;8.950;2022-10-03T14:33:36;6.60;;;1.57;;
4726;SDS011;2377;51.734;8.950;2022-10-03T14:36:23;9.23;;;1.90;;
4726;SDS011;2377;51.734;8.950;2022-10-03T14:39:05;8.17;;;1.77;;
4726;SDS011;2377;51.734;8.950;2022-10-03T14:41:48;5.23;;;2.33;;
4726;SDS011;2377;51.734;8.950;2022-10-03T14:45:06;6.77;;;1.97;;
4726;SDS011;2377;51.734;8.950;2022-10-03T14:47:39;6.20;;;1.87;;
4726;SDS011;2377;51.734;8.950;2022-10-03T14:50:15;13.47;;;2.13;;
4726;SDS011;2377;51.734;8.950;2022-10-03T14:52:48;8.10;;;1.87;;
4726;SDS011;2377;51.734;8.950;2022-10-03T14:55:26;7.27;;;1.97;;
4726;SDS011;2377;51.734;8.950;2022-10-03T14:57:58;7.70;;;1.87;;
4726;SDS011;2377;51.734;8.950;2022-10-03T15:00:35;6.80;;;2.30;;
4726;SDS011;2377;51.734;8.950;2022-10-03T15:03:27;12.87;;;3.13;;
4726;SDS011;2377;51.734;8.950;2022-10-03T15:09:01;7.57;;;1.57;;
4726;SDS011;2377;51.734;8.950;2022-10-03T15:11:36;4.67;;;1.63;;
4726;SDS011;2377;51.734;8.950;2022-10-03T15:14:13;7.40;;;2.00;;
4726;SDS011;2377;51.734;8.950;2022-10-03T15:16:45;6.43;;;2.00;;
4726;SDS011;2377;51.734;8.950;2022-10-03T15:19:19;9.77;;;1.70;;
4726;SDS011;2377;51.734;8.950;2022-10-03T15:21:53;8.60;;;2.27;;
4726;SDS011;2377;51.734;8.950;2022-10-03T15:24:29;6.37;;;2.03;;
4726;SDS011;2377;51.734;8.950;2022-10-03T15:27:01;8.17;;;1.83;;
4726;SDS011;2377;51.734;8.950;2022-10-03T15:29:37;6.37;;;1.87;;
4726;SDS011;2377;51.734;8.950;2022-10-03T15:32:15;8.57;;;1.80;;
4726;SDS011;2377;51.734;8.950;2022-10-03T15:34:51;7.00;;;1.87;;
4726;SDS011;2377;51.734;8.950;2022-10-03T15:37:25;4.97;;;1.90;;
4726;SDS011;2377;51.734;8.950;2022-10-03T15:40:04;11.43;;;2.00;;
4726;SDS011;2377;51.734;8.950;2022-10-03T15:42:46;9.73;;;2.47;;
4726;SDS011;2377;51.734;8.950;2022-10-03T15:45:20;8.53;;;1.87;;
4726;SDS011;2377;51.734;8.950;2022-10-03T15:47:54;4.00;;;1.63;;
4726;SDS011;2377;51.734;8.950;2022-10-03T15:50:27;6.73;;;1.60;;
4726;SDS011;2377;51.734;8.950;2022-10-03T15:53:00;6.03;;;1.53;;
4726;SDS011;2377;51.734;8.950;2022-10-03T15:55:35;6.43;;;1.60;;
4726;SDS011;2377;51.734;8.950;2022-10-03T15:58:10;8.00;;;1.87;;
4726;SDS011;2377;51.734;8.950;2022-10-03T16:00:47;4.23;;;1.60;;
4726;SDS011;2377;51.734;8.950;2022-10-03T16:03:29;10.57;;;2.10;;
4726;SDS011;2377;51.734;8.950;2022-10-03T16:06:07;12.60;;;1.90;;
4726;SDS011;2377;51.734;8.950;2022-10-03T16:08:45;6.57;;;1.83;;
4726;SDS011;2377;51.734;8.950;2022-10-03T16:11:24;5.40;;;2.00;;
4726;SDS011;2377;51.734;8.950;2022-10-03T16:14:08;4.07;;;1.47;;
4726;SDS011;2377;51.734;8.950;2022-10-03T16:16:45;4.33;;;1.50;;
4726;SDS011;2377;51.734;8.950;2022-10-03T16:19:22;3.73;;;1.60;;
4726;SDS011;2377;51.734;8.950;2022-10-03T16:21:57;7.20;;;1.67;;
4726;SDS011;2377;51.734;8.950;2022-10-03T16:24:44;11.47;;;2.20;;
4726;SDS011;2377;51.734;8.950;2022-10-03T16:27:29;6.53;;;1.97;;
4726;SDS011;2377;51.734;8.950;2022-10-03T16:30:13;6.03;;;1.60;;
4726;SDS011;2377;51.734;8.950;2022-10-03T16:32:47;7.03;;;2.00;;
4726;SDS011;2377;51.734;8.950;2022-10-03T16:35:42;8.40;;;2.23;;
4726;SDS011;2377;51.734;8.950;2022-10-03T16:38:16;6.40;;;1.90;;
4726;SDS011;2377;51.734;8.950;2022-10-03T16:40:49;7.80;;;2.17;;
4726;SDS011;2377;51.734;8.950;2022-10-03T16:43:21;6.73;;;2.33;;
4726;SDS011;2377;51.734;8.950;2022-10-03T16:45:50;5.47;;;2.10;;
4726;SDS011;2377;51.734;8.950;2022-10-03T16:48:20;4.23;;;1.70;;
4726;SDS011;2377;51.734;8.950;2022-10-03T16:51:16;5.83;;;1.97;;
4726;SDS011;2377;51.734;8.950;2022-10-03T16:53:47;5.07;;;2.20;;
4726;SDS011;2377;51.734;8.950;2022-10-03T16:56:19;4.13;;;1.50;;
4726;SDS011;2377;51.734;8.950;2022-10-03T16:58:52;5.77;;;1.47;;
4726;SDS011;2377;51.734;8.950;2022-10-03T17:01:29;5.23;;;1.90;;
4726;SDS011;2377;51.734;8.950;2022-10-03T17:06:49;5.87;;;1.90;;
4726;SDS011;2377;51.734;8.950;2022-10-03T17:09:24;6.33;;;2.17;;
4726;SDS011;2377;51.734;8.950;2022-10-03T17:12:05;7.37;;;1.97;;
4726;SDS011;2377;51.734;8.950;2022-10-03T17:14:42;5.30;;;2.37;;
4726;SDS011;2377;51.734;8.950;2022-10-03T17:17:16;5.53;;;2.30;;
4726;SDS011;2377;51.734;8.950;2022-10-03T17:19:56;4.40;;;2.10;;
4726;SDS011;2377;51.734;8.950;2022-10-03T17:22:31;6.07;;;2.00;;
4726;SDS011;2377;51.734;8.950;2022-10-03T17:25:06;8.37;;;2.20;;
4726;SDS011;2377;51.734;8.950;2022-10-03T17:28:10;9.70;;;2.30;;
4726;SDS011;2377;51.734;8.950;2022-10-03T17:30:46;3.90;;;1.93;;
4726;SDS011;2377;51.734;8.950;2022-10-03T17:33:19;6.63;;;2.37;;
4726;SDS011;2377;51.734;8.950;2022-10-03T17:35:57;4.03;;;2.10;;
4726;SDS011;2377;51.734;8.950;2022-10-03T17:38:59;8.20;;;2.43;;
4726;SDS011;2377;51.734;8.950;2022-10-03T17:41:32;7.30;;;2.60;;
4726;SDS011;2377;51.734;8.950;2022-10-03T17:44:13;6.60;;;2.17;;
4726;SDS011;2377;51.734;8.950;2022-10-03T17:46:56;4.40;;;2.23;;
4726;SDS011;2377;51.734;8.950;2022-10-03T17:49:38;4.57;;;1.90;;
4726;SDS011;2377;51.734;8.950;2022-10-03T17:52:21;5.50;;;2.23;;
4726;SDS011;2377;51.734;8.950;2022-10-03T17:54:52;6.20;;;2.10;;
4726;SDS011;2377;51.734;8.950;2022-10-03T17:57:23;3.93;;;2.10;;
4726;SDS011;2377;51.734;8.950;2022-10-03T17:59:55;5.27;;;2.37;;
4726;SDS011;2377;51.734;8.950;2022-10-03T18:02:32;10.40;;;2.40;;
4726;SDS011;2377;51.734;8.950;2022-10-03T18:05:08;5.80;;;2.60;;
4726;SDS011;2377;51.734;8.950;2022-10-03T18:07:42;6.53;;;2.97;;
4726;SDS011;2377;51.734;8.950;2022-10-03T18:10:19;5.57;;;2.10;;
4726;SDS011;2377;51.734;8.950;2022-10-03T18:12:52;5.83;;;2.20;;
4726;SDS011;2377;51.734;8.950;2022-10-03T18:15:28;5.87;;;2.20;;
4726;SDS011;2377;51.734;8.950;2022-10-03T18:18:38;5.20;;;2.13;;
4726;SDS011;2377;51.734;8.950;2022-10-03T18:21:50;4.03;;;1.90;;
4726;SDS011;2377;51.734;8.950;2022-10-03T18:24:41;8.00;;;2.53;;
4726;SDS011;2377;51.734;8.950;2022-10-03T18:27:32;5.67;;;1.97;;
4726;SDS011;2377;51.734;8.950;2022-10-03T18:30:24;5.97;;;2.20;;
4726;SDS011;2377;51.734;8.950;2022-10-03T18:33:04;6.50;;;2.10;;
4726;SDS011;2377;51.734;8.950;2022-10-03T18:35:38;4.00;;;1.60;;
4726;SDS011;2377;51.734;8.950;2022-10-03T18:38:13;6.00;;;2.07;;
4726;SDS011;2377;51.734;8.950;2022-10-03T18:40:49;5.50;;;2.20;;
4726;SDS011;2377;51.734;8.950;2022-10-03T18:46:13;5.83;;;2.10;;
4726;SDS011;2377;51.734;8.950;2022-10-03T18:48:50;3.33;;;1.90;;
4726;SDS011;2377;51.734;8.950;2022-10-03T18:51:31;7.33;;;2.20;;
4726;SDS011;2377;51.734;8.950;2022-10-03T18:54:06;4.83;;;1.70;;
4726;SDS011;2377;51.734;8.950;2022-10-03T18:56:58;8.33;;;1.50;;
4726;SDS011;2377;51.734;8.950;2022-10-03T18:59:36;5.03;;;1.77;;
4726;SDS011;2377;51.734;8.950;2022-10-03T19:02:18;3.33;;;1.70;;
4726;SDS011;2377;51.734;8.950;2022-10-03T19:04:55;4.00;;;2.07;;
4726;SDS011;2377;51.734;8.950;2022-10-03T19:07:33;4.03;;;1.70;;
4726;SDS011;2377;51.734;8.950;2022-10-03T19:10:26;4.20;;;1.90;;
4726;SDS011;2377;51.734;8.950;2022-10-03T19:13:17;4.77;;;1.60;;
4726;SDS011;2377;51.734;8.950;2022-10-03T19:16:09;2.73;;;1.60;;
4726;SDS011;2377;51.734;8.950;2022-10-03T19:18:52;9.10;;;1.80;;
4726;SDS011;2377;51.734;8.950;2022-10-03T19:21:32;3.77;;;1.60;;
4726;SDS011;2377;51.734;8.950;2022-10-03T19:24:03;3.80;;;1.60;;
4726;SDS011;2377;51.734;8.950;2022-10-03T19:26:37;5.43;;;1.87;;
4726;SDS011;2377;51.734;8.950;2022-10-03T19:29:12;3.67;;;1.70;;
4726;SDS011;2377;51.734;8.950;2022-10-03T19:31:51;3.33;;;1.53;;
4726;SDS011;2377;51.734;8.950;2022-10-03T19:34:27;4.17;;;1.70;;
4726;SDS011;2377;51.734;8.950;2022-10-03T19:37:04;4.33;;;1.80;;
4726;SDS011;2377;51.734;8.950;2022-10-03T19:39:38;3.63;;;1.90;;
4726;SDS011;2377;51.734;8.950;2022-10-03T19:45:02;9.73;;;1.90;;
4726;SDS011;2377;51.734;8.950;2022-10-03T19:47:37;5.40;;;1.73;;
4726;SDS011;2377;51.734;8.950;2022-10-03T19:50:14;15.63;;;2.20;;
4726;SDS011;2377;51.734;8.950;2022-10-03T19:52:45;6.90;;;2.20;;
4726;SDS011;2377;51.734;8.950;2022-10-03T19:55:16;6.63;;;1.87;;
4726;SDS011;2377;51.734;8.950;2022-10-03T19:57:49;3.90;;;1.60;;
4726;SDS011;2377;51.734;8.950;2022-10-03T20:00:21;4.17;;;1.60;;
4726;SDS011;2377;51.734;8.950;2022-10-03T20:03:03;7.50;;;2.07;;
4726;SDS011;2377;51.734;8.950;2022-10-03T20:05:42;3.20;;;1.67;;
4726;SDS011;2377;51.734;8.950;2022-10-03T20:08:23;7.20;;;1.67;;
4726;SDS011;2377;51.734;8.950;2022-10-03T20:11:05;6.17;;;2.00;;
4726;SDS011;2377;51.734;8.950;2022-10-03T20:13:51;3.70;;;1.77;;
4726;SDS011;2377;51.734;8.950;2022-10-03T20:16:22;4.20;;;2.10;;
4726;SDS011;2377;51.734;8.950;2022-10-03T20:18:57;4.30;;;2.10;;
4726;SDS011;2377;51.734;8.950;2022-10-03T20:21:33;4.43;;;1.93;;
4726;SDS011;2377;51.734;8.950;2022-10-03T20:24:06;4.50;;;1.90;;
4726;SDS011;2377;51.734;8.950;2022-10-03T20:26:44;6.40;;;1.70;;
4726;SDS011;2377;51.734;8.950;2022-10-03T20:29:22;5.27;;;1.70;;
4726;SDS011;2377;51.734;8.950;2022-10-03T20:31:59;4.63;;;1.70;;
4726;SDS011;2377;51.734;8.950;2022-10-03T20:34:30;2.87;;;1.67;;
4726;SDS011;2377;51.734;8.950;2022-10-03T20:37:06;6.63;;;1.93;;
4726;SDS011;2377;51.734;8.950;2022-10-03T20:39:58;4.40;;;1.80;;
4726;SDS011;2377;51.734;8.950;2022-10-03T20:42:44;4.20;;;1.80;;
4726;SDS011;2377;51.734;8.950;2022-10-03T20:45:15;3.07;;;1.67;;
4726;SDS011;2377;51.734;8.950;2022-10-03T20:47:50;3.50;;;1.53;;